sensor_id;sensor_type;location;lat;lon;timestamp;temperature;humidity
5200;DHT22;2619;47.868;11.892;2022-09-23T00:00:39;2.60;99.90
5200;DHT22;2619;47.868;11.892;2022-09-23T00:03:04;2.60;99.90
5200;DHT22;2619;47.868;11.892;2022-09-23T00:05:31;2.50;99.90
5200;DHT22;2619;47.868;11.892;2022-09-23T00:07:57;2.50;99.90
5200;DHT22;2619;47.868;11.892;2022-09-23T00:10:25;2.60;99.90
5200;DHT22;2619;47.868;11.892;2022-09-23T00:12:53;2.70;99.90
5200;DHT22;2619;47.868;11.892;2022-09-23T00:15:19;2.80;99.90
5200;DHT22;2619;47.868;11.892;2022-09-23T00:17:45;2.90;99.90
5200;DHT22;2619;47.868;11.892;2022-09-23T00:20:12;2.90;99.90
5200;DHT22;2619;47.868;11.892;2022-09-23T00:22:38;3.00;99.90
5200;DHT22;2619;47.868;11.892;2022-09-23T00:25:05;3.00;99.90
5200;DHT22;2619;47.868;11.892;2022-09-23T00:27:31;3.00;99.90
5200;DHT22;2619;47.868;11.892;2022-09-23T00:29:58;3.00;99.90
5200;DHT22;2619;47.868;11.892;2022-09-23T00:32:24;2.90;99.90
5200;DHT22;2619;47.868;11.892;2022-09-23T00:34:50;2.80;99.90
5200;DHT22;2619;47.868;11.892;2022-09-23T00:37:16;2.70;99.90
5200;DHT22;2619;47.868;11.892;2022-09-23T00:39:41;2.60;99.90
5200;DHT22;2619;47.868;11.892;2022-09-23T00:42:13;2.50;99.90
5200;DHT22;2619;47.868;11.892;2022-09-23T00:44:50;2.50;99.90
5200;DHT22;2619;47.868;11.892;2022-09-23T00:50:54;2.50;99.90
5200;DHT22;2619;47.868;11.892;2022-09-23T00:52:57;2.50;99.90
5200;DHT22;2619;47.868;11.892;2022-09-23T00:55:30;2.40;99.90
5200;DHT22;2619;47.868;11.892;2022-09-23T00:57:58;2.30;99.90
5200;DHT22;2619;47.868;11.892;2022-09-23T01:00:24;2.50;99.90
5200;DHT22;2619;47.868;11.892;2022-09-23T01:02:50;2.50;99.90
5200;DHT22;2619;47.868;11.892;2022-09-23T01:05:17;2.60;99.90
5200;DHT22;2619;47.868;11.892;2022-09-23T01:07:43;2.60;99.90
5200;DHT22;2619;47.868;11.892;2022-09-23T01:10:09;2.50;99.90
5200;DHT22;2619;47.868;11.892;2022-09-23T01:15:41;2.50;99.90
5200;DHT22;2619;47.868;11.892;2022-09-23T01:23:57;2.50;99.90
5200;DHT22;2619;47.868;11.892;2022-09-23T01:26:53;2.50;99.90
5200;DHT22;2619;47.868;11.892;2022-09-23T01:29:54;2.40;99.90
5200;DHT22;2619;47.868;11.892;2022-09-23T01:32:48;2.30;99.90
5200;DHT22;2619;47.868;11.892;2022-09-23T01:40:56;2.10;99.90
5200;DHT22;2619;47.868;11.892;2022-09-23T01:43:41;2.10;99.90
5200;DHT22;2619;47.868;11.892;2022-09-23T01:46:16;2.30;99.90
5200;DHT22;2619;47.868;11.892;2022-09-23T01:48:50;2.40;99.90
5200;DHT22;2619;47.868;11.892;2022-09-23T01:51:24;2.40;99.90
5200;DHT22;2619;47.868;11.892;2022-09-23T01:54:13;2.30;99.90
5200;DHT22;2619;47.868;11.892;2022-09-23T01:56:59;2.20;99.90
5200;DHT22;2619;47.868;11.892;2022-09-23T02:04:52;1.90;99.90
5200;DHT22;2619;47.868;11.892;2022-09-23T02:09:54;1.80;99.90
5200;DHT22;2619;47.868;11.892;2022-09-23T02:12:23;1.70;99.90
5200;DHT22;2619;47.868;11.892;2022-09-23T02:15:01;1.80;99.90
5200;DHT22;2619;47.868;11.892;2022-09-23T02:17:54;1.70;99.90
5200;DHT22;2619;47.868;11.892;2022-09-23T02:20:25;1.60;99.90
5200;DHT22;2619;47.868;11.892;2022-09-23T02:23:04;1.60;99.90
5200;DHT22;2619;47.868;11.892;2022-09-23T02:31:44;1.60;99.90
5200;DHT22;2619;47.868;11.892;2022-09-23T02:39:22;1.50;99.90
5200;DHT22;2619;47.868;11.892;2022-09-23T02:42:06;1.50;99.90
5200;DHT22;2619;47.868;11.892;2022-09-23T02:44:34;1.50;99.90
5200;DHT22;2619;47.868;11.892;2022-09-23T02:47:00;1.40;99.90
5200;DHT22;2619;47.868;11.892;2022-09-23T02:49:28;1.40;99.90
5200;DHT22;2619;47.868;11.892;2022-09-23T02:51:55;1.40;99.90
5200;DHT22;2619;47.868;11.892;2022-09-23T02:54:23;1.40;99.90
5200;DHT22;2619;47.868;11.892;2022-09-23T02:56:50;1.40;99.90
5200;DHT22;2619;47.868;11.892;2022-09-23T02:59:19;1.40;99.90
5200;DHT22;2619;47.868;11.892;2022-09-23T03:12:25;1.40;99.90
5200;DHT22;2619;47.868;11.892;2022-09-23T03:15:32;1.40;99.90
5200;DHT22;2619;47.868;11.892;2022-09-23T03:18:18;1.40;99.90
5200;DHT22;2619;47.868;11.892;2022-09-23T03:20:53;1.40;99.90
5200;DHT22;2619;47.868;11.892;2022-09-23T03:23:23;1.40;99.90
5200;DHT22;2619;47.868;11.892;2022-09-23T03:25:52;1.40;99.90
5200;DHT22;2619;47.868;11.892;2022-09-23T03:28:20;1.50;99.90
5200;DHT22;2619;47.868;11.892;2022-09-23T03:30:48;1.40;99.90
5200;DHT22;2619;47.868;11.892;2022-09-23T03:33:17;1.50;99.90
5200;DHT22;2619;47.868;11.892;2022-09-23T03:36:04;1.50;99.90
5200;DHT22;2619;47.868;11.892;2022-09-23T03:39:10;1.60;99.90
5200;DHT22;2619;47.868;11.892;2022-09-23T03:41:44;1.60;99.90
5200;DHT22;2619;47.868;11.892;2022-09-23T03:44:16;1.60;99.90
5200;DHT22;2619;47.868;11.892;2022-09-23T03:46:42;1.60;99.90
5200;DHT22;2619;47.868;11.892;2022-09-23T03:49:27;1.60;99.90
5200;DHT22;2619;47.868;11.892;2022-09-23T03:51:54;1.60;99.90
5200;DHT22;2619;47.868;11.892;2022-09-23T03:54:20;1.50;99.90
5200;DHT22;2619;47.868;11.892;2022-09-23T03:56:46;1.50;99.90
5200;DHT22;2619;47.868;11.892;2022-09-23T03:59:13;1.60;99.90
5200;DHT22;2619;47.868;11.892;2022-09-23T04:01:42;1.60;99.90
5200;DHT22;2619;47.868;11.892;2022-09-23T04:04:09;1.60;99.90
5200;DHT22;2619;47.868;11.892;2022-09-23T04:06:34;1.50;99.90
5200;DHT22;2619;47.868;11.892;2022-09-23T04:09:00;1.50;99.90
5200;DHT22;2619;47.868;11.892;2022-09-23T04:11:27;1.50;99.90
5200;DHT22;2619;47.868;11.892;2022-09-23T04:13:54;1.60;99.90
5200;DHT22;2619;47.868;11.892;2022-09-23T04:16:20;1.60;99.90
5200;DHT22;2619;47.868;11.892;2022-09-23T04:18:45;1.60;99.90
5200;DHT22;2619;47.868;11.892;2022-09-23T04:21:11;1.70;99.90
5200;DHT22;2619;47.868;11.892;2022-09-23T04:23:37;1.70;99.90
5200;DHT22;2619;47.868;11.892;2022-09-23T04:26:04;1.70;99.90
5200;DHT22;2619;47.868;11.892;2022-09-23T04:28:30;1.70;99.90
5200;DHT22;2619;47.868;11.892;2022-09-23T04:30:56;1.70;99.90
5200;DHT22;2619;47.868;11.892;2022-09-23T04:33:22;1.60;99.90
5200;DHT22;2619;47.868;11.892;2022-09-23T04:35:52;1.50;99.90
5200;DHT22;2619;47.868;11.892;2022-09-23T04:38:18;1.50;99.90
5200;DHT22;2619;47.868;11.892;2022-09-23T04:40:44;1.40;99.90
5200;DHT22;2619;47.868;11.892;2022-09-23T04:43:09;1.40;99.90
5200;DHT22;2619;47.868;11.892;2022-09-23T04:45:35;1.30;99.90
5200;DHT22;2619;47.868;11.892;2022-09-23T04:48:01;1.40;99.90
5200;DHT22;2619;47.868;11.892;2022-09-23T04:50:28;1.30;99.90
5200;DHT22;2619;47.868;11.892;2022-09-23T04:52:54;1.30;99.90
5200;DHT22;2619;47.868;11.892;2022-09-23T04:55:20;1.30;99.90
5200;DHT22;2619;47.868;11.892;2022-09-23T04:57:46;1.20;99.90
5200;DHT22;2619;47.868;11.892;2022-09-23T05:00:12;1.20;99.90
5200;DHT22;2619;47.868;11.892;2022-09-23T05:02:46;1.20;99.90
5200;DHT22;2619;47.868;11.892;2022-09-23T05:05:13;1.20;99.90
5200;DHT22;2619;47.868;11.892;2022-09-23T05:07:44;1.20;99.90
5200;DHT22;2619;47.868;11.892;2022-09-23T05:10:10;1.30;99.90
5200;DHT22;2619;47.868;11.892;2022-09-23T05:12:35;1.30;99.90
5200;DHT22;2619;47.868;11.892;2022-09-23T05:15:01;1.50;99.90
5200;DHT22;2619;47.868;11.892;2022-09-23T05:17:27;1.60;99.90
5200;DHT22;2619;47.868;11.892;2022-09-23T05:19:53;2.00;99.90
5200;DHT22;2619;47.868;11.892;2022-09-23T05:22:18;2.50;99.90
5200;DHT22;2619;47.868;11.892;2022-09-23T05:24:44;2.90;99.90
5200;DHT22;2619;47.868;11.892;2022-09-23T05:27:10;3.30;99.90
5200;DHT22;2619;47.868;11.892;2022-09-23T05:29:36;3.80;99.90
5200;DHT22;2619;47.868;11.892;2022-09-23T05:32:03;4.20;99.90
5200;DHT22;2619;47.868;11.892;2022-09-23T05:34:28;4.70;99.90
5200;DHT22;2619;47.868;11.892;2022-09-23T05:36:54;5.10;99.90
5200;DHT22;2619;47.868;11.892;2022-09-23T05:39:20;5.50;99.90
5200;DHT22;2619;47.868;11.892;2022-09-23T05:41:45;5.90;99.90
5200;DHT22;2619;47.868;11.892;2022-09-23T05:44:11;6.20;99.90
5200;DHT22;2619;47.868;11.892;2022-09-23T05:46:37;6.60;99.90
5200;DHT22;2619;47.868;11.892;2022-09-23T05:49:02;7.10;99.90
5200;DHT22;2619;47.868;11.892;2022-09-23T05:51:31;7.40;99.90
5200;DHT22;2619;47.868;11.892;2022-09-23T05:53:57;7.90;99.90
5200;DHT22;2619;47.868;11.892;2022-09-23T05:56:25;8.30;99.90
5200;DHT22;2619;47.868;11.892;2022-09-23T05:58:53;8.80;99.90
5200;DHT22;2619;47.868;11.892;2022-09-23T06:01:21;9.10;99.90
5200;DHT22;2619;47.868;11.892;2022-09-23T06:03:50;9.40;99.90
5200;DHT22;2619;47.868;11.892;2022-09-23T06:06:17;9.80;99.90
5200;DHT22;2619;47.868;11.892;2022-09-23T06:08:47;10.10;99.90
5200;DHT22;2619;47.868;11.892;2022-09-23T06:11:13;10.40;99.90
5200;DHT22;2619;47.868;11.892;2022-09-23T06:13:40;10.70;99.90
5200;DHT22;2619;47.868;11.892;2022-09-23T06:16:11;10.90;99.90
5200;DHT22;2619;47.868;11.892;2022-09-23T06:18:39;11.00;99.90
5200;DHT22;2619;47.868;11.892;2022-09-23T06:21:05;11.20;99.90
5200;DHT22;2619;47.868;11.892;2022-09-23T06:23:31;11.20;99.90
5200;DHT22;2619;47.868;11.892;2022-09-23T06:26:05;11.00;99.90
5200;DHT22;2619;47.868;11.892;2022-09-23T06:28:32;10.30;99.90
5200;DHT22;2619;47.868;11.892;2022-09-23T06:31:00;9.90;99.90
5200;DHT22;2619;47.868;11.892;2022-09-23T06:33:28;9.40;99.90
5200;DHT22;2619;47.868;11.892;2022-09-23T06:35:55;9.00;99.90
5200;DHT22;2619;47.868;11.892;2022-09-23T06:38:21;8.70;99.90
5200;DHT22;2619;47.868;11.892;2022-09-23T06:40:54;8.30;99.90
5200;DHT22;2619;47.868;11.892;2022-09-23T06:43:21;8.10;99.90
5200;DHT22;2619;47.868;11.892;2022-09-23T06:45:54;7.90;99.90
5200;DHT22;2619;47.868;11.892;2022-09-23T06:48:21;7.80;99.90
5200;DHT22;2619;47.868;11.892;2022-09-23T06:50:47;7.70;99.90
5200;DHT22;2619;47.868;11.892;2022-09-23T06:53:16;7.70;99.90
5200;DHT22;2619;47.868;11.892;2022-09-23T06:55:42;7.70;99.90
5200;DHT22;2619;47.868;11.892;2022-09-23T06:58:08;7.80;99.90
5200;DHT22;2619;47.868;11.892;2022-09-23T07:00:35;7.90;99.90
5200;DHT22;2619;47.868;11.892;2022-09-23T07:03:00;8.10;99.90
5200;DHT22;2619;47.868;11.892;2022-09-23T07:05:30;8.10;99.90
5200;DHT22;2619;47.868;11.892;2022-09-23T07:07:55;8.30;99.90
5200;DHT22;2619;47.868;11.892;2022-09-23T07:10:21;8.50;99.90
5200;DHT22;2619;47.868;11.892;2022-09-23T07:12:46;8.60;99.90
5200;DHT22;2619;47.868;11.892;2022-09-23T07:15:12;8.70;99.90
5200;DHT22;2619;47.868;11.892;2022-09-23T07:17:40;8.70;99.90
5200;DHT22;2619;47.868;11.892;2022-09-23T07:20:07;8.80;99.90
5200;DHT22;2619;47.868;11.892;2022-09-23T07:22:34;9.00;99.90
5200;DHT22;2619;47.868;11.892;2022-09-23T07:25:00;9.10;99.90
5200;DHT22;2619;47.868;11.892;2022-09-23T07:27:26;9.30;99.90
5200;DHT22;2619;47.868;11.892;2022-09-23T07:29:52;9.30;99.90
5200;DHT22;2619;47.868;11.892;2022-09-23T07:32:20;9.40;99.90
5200;DHT22;2619;47.868;11.892;2022-09-23T07:34:46;9.50;99.90
5200;DHT22;2619;47.868;11.892;2022-09-23T07:37:13;9.60;99.90
5200;DHT22;2619;47.868;11.892;2022-09-23T07:39:39;9.70;99.90
5200;DHT22;2619;47.868;11.892;2022-09-23T07:42:06;9.80;99.90
5200;DHT22;2619;47.868;11.892;2022-09-23T07:44:32;9.90;99.90
5200;DHT22;2619;47.868;11.892;2022-09-23T07:46:58;10.10;99.90
5200;DHT22;2619;47.868;11.892;2022-09-23T07:49:25;10.20;99.90
5200;DHT22;2619;47.868;11.892;2022-09-23T07:51:51;10.10;99.90
5200;DHT22;2619;47.868;11.892;2022-09-23T07:54:17;10.00;99.90
5200;DHT22;2619;47.868;11.892;2022-09-23T07:56:43;10.30;99.90
5200;DHT22;2619;47.868;11.892;2022-09-23T07:59:17;10.20;99.90
5200;DHT22;2619;47.868;11.892;2022-09-23T08:01:48;10.50;99.90
5200;DHT22;2619;47.868;11.892;2022-09-23T08:04:20;10.60;99.90
5200;DHT22;2619;47.868;11.892;2022-09-23T08:06:49;10.60;99.90
5200;DHT22;2619;47.868;11.892;2022-09-23T08:09:17;10.50;99.90
5200;DHT22;2619;47.868;11.892;2022-09-23T08:11:43;10.60;99.90
5200;DHT22;2619;47.868;11.892;2022-09-23T08:14:10;10.80;99.90
5200;DHT22;2619;47.868;11.892;2022-09-23T08:16:36;10.90;99.90
5200;DHT22;2619;47.868;11.892;2022-09-23T08:19:02;11.00;99.90
5200;DHT22;2619;47.868;11.892;2022-09-23T08:21:27;11.30;99.90
5200;DHT22;2619;47.868;11.892;2022-09-23T08:23:54;11.40;99.90
5200;DHT22;2619;47.868;11.892;2022-09-23T08:26:19;11.50;99.90
5200;DHT22;2619;47.868;11.892;2022-09-23T08:28:45;11.60;99.90
5200;DHT22;2619;47.868;11.892;2022-09-23T08:31:12;11.60;99.90
5200;DHT22;2619;47.868;11.892;2022-09-23T08:33:39;11.80;99.90
5200;DHT22;2619;47.868;11.892;2022-09-23T08:36:05;12.00;99.90
5200;DHT22;2619;47.868;11.892;2022-09-23T08:38:31;11.90;99.90
5200;DHT22;2619;47.868;11.892;2022-09-23T08:41:06;12.00;99.90
5200;DHT22;2619;47.868;11.892;2022-09-23T08:43:36;12.20;99.90
5200;DHT22;2619;47.868;11.892;2022-09-23T08:46:05;12.30;99.90
5200;DHT22;2619;47.868;11.892;2022-09-23T08:48:45;12.40;99.90
5200;DHT22;2619;47.868;11.892;2022-09-23T08:51:14;12.60;99.90
5200;DHT22;2619;47.868;11.892;2022-09-23T08:53:42;12.80;99.90
5200;DHT22;2619;47.868;11.892;2022-09-23T08:56:13;13.00;99.90
5200;DHT22;2619;47.868;11.892;2022-09-23T08:58:54;13.10;99.90
5200;DHT22;2619;47.868;11.892;2022-09-23T09:01:45;13.30;99.90
5200;DHT22;2619;47.868;11.892;2022-09-23T09:06:53;13.60;99.90
5200;DHT22;2619;47.868;11.892;2022-09-23T09:09:27;13.70;99.90
5200;DHT22;2619;47.868;11.892;2022-09-23T09:12:00;13.80;99.90
5200;DHT22;2619;47.868;11.892;2022-09-23T09:17:35;14.10;99.90
5200;DHT22;2619;47.868;11.892;2022-09-23T09:22:57;14.20;99.90
5200;DHT22;2619;47.868;11.892;2022-09-23T09:25:45;14.20;99.90
5200;DHT22;2619;47.868;11.892;2022-09-23T09:30:47;14.30;99.90
5200;DHT22;2619;47.868;11.892;2022-09-23T09:33:16;14.20;99.90
5200;DHT22;2619;47.868;11.892;2022-09-23T09:35:56;14.40;99.90
5200;DHT22;2619;47.868;11.892;2022-09-23T09:38:25;14.50;99.90
5200;DHT22;2619;47.868;11.892;2022-09-23T09:40:52;14.50;99.90
5200;DHT22;2619;47.868;11.892;2022-09-23T09:43:20;14.60;99.90
5200;DHT22;2619;47.868;11.892;2022-09-23T09:46:05;14.50;99.90
5200;DHT22;2619;47.868;11.892;2022-09-23T09:49:17;14.60;99.90
5200;DHT22;2619;47.868;11.892;2022-09-23T09:51:31;14.70;99.90
5200;DHT22;2619;47.868;11.892;2022-09-23T09:54:29;14.70;99.90
5200;DHT22;2619;47.868;11.892;2022-09-23T09:56:55;14.70;99.90
5200;DHT22;2619;47.868;11.892;2022-09-23T09:59:26;14.50;99.90
5200;DHT22;2619;47.868;11.892;2022-09-23T10:02:12;14.30;99.90
5200;DHT22;2619;47.868;11.892;2022-09-23T10:04:38;14.60;99.90
5200;DHT22;2619;47.868;11.892;2022-09-23T10:07:14;14.70;99.90
5200;DHT22;2619;47.868;11.892;2022-09-23T10:09:48;14.80;99.90
5200;DHT22;2619;47.868;11.892;2022-09-23T10:12:16;15.10;99.90
5200;DHT22;2619;47.868;11.892;2022-09-23T10:14:43;15.30;99.90
5200;DHT22;2619;47.868;11.892;2022-09-23T10:17:21;15.40;99.90
5200;DHT22;2619;47.868;11.892;2022-09-23T10:19:53;15.60;99.90
5200;DHT22;2619;47.868;11.892;2022-09-23T10:22:24;15.70;99.90
5200;DHT22;2619;47.868;11.892;2022-09-23T10:24:57;15.70;99.90
5200;DHT22;2619;47.868;11.892;2022-09-23T10:27:27;15.80;99.90
5200;DHT22;2619;47.868;11.892;2022-09-23T10:29:55;16.00;99.90
5200;DHT22;2619;47.868;11.892;2022-09-23T10:32:27;16.00;99.90
5200;DHT22;2619;47.868;11.892;2022-09-23T10:35:11;16.00;99.90
5200;DHT22;2619;47.868;11.892;2022-09-23T10:40:14;16.30;99.90
5200;DHT22;2619;47.868;11.892;2022-09-23T10:45:54;16.60;99.90
5200;DHT22;2619;47.868;11.892;2022-09-23T10:49:04;16.70;99.90
5200;DHT22;2619;47.868;11.892;2022-09-23T10:51:56;16.70;99.90
5200;DHT22;2619;47.868;11.892;2022-09-23T11:03:16;17.00;99.90
5200;DHT22;2619;47.868;11.892;2022-09-23T11:14:18;17.30;99.90
5200;DHT22;2619;47.868;11.892;2022-09-23T11:19:54;17.70;99.90
5200;DHT22;2619;47.868;11.892;2022-09-23T11:28:51;18.00;99.90
5200;DHT22;2619;47.868;11.892;2022-09-23T11:36:52;18.40;99.90
5200;DHT22;2619;47.868;11.892;2022-09-23T11:39:26;18.70;99.90
5200;DHT22;2619;47.868;11.892;2022-09-23T11:41:55;19.00;99.90
5200;DHT22;2619;47.868;11.892;2022-09-23T11:44:30;19.20;99.90
5200;DHT22;2619;47.868;11.892;2022-09-23T11:49:40;19.30;99.90
5200;DHT22;2619;47.868;11.892;2022-09-23T11:52:17;19.40;99.90
5200;DHT22;2619;47.868;11.892;2022-09-23T11:55:21;19.40;99.90
5200;DHT22;2619;47.868;11.892;2022-09-23T11:57:57;19.20;99.90
5200;DHT22;2619;47.868;11.892;2022-09-23T12:00:29;19.30;99.90
5200;DHT22;2619;47.868;11.892;2022-09-23T12:05:37;19.60;99.90
5200;DHT22;2619;47.868;11.892;2022-09-23T12:10:56;19.90;99.90
5200;DHT22;2619;47.868;11.892;2022-09-23T12:27:38;20.30;99.90
5200;DHT22;2619;47.868;11.892;2022-09-23T12:30:29;20.20;99.90
5200;DHT22;2619;47.868;11.892;2022-09-23T12:33:33;20.20;99.90
5200;DHT22;2619;47.868;11.892;2022-09-23T12:36:06;20.50;99.90
5200;DHT22;2619;47.868;11.892;2022-09-23T12:38:35;20.80;99.90
5200;DHT22;2619;47.868;11.892;2022-09-23T12:41:26;20.70;99.90
5200;DHT22;2619;47.868;11.892;2022-09-23T12:46:42;20.90;99.90
5200;DHT22;2619;47.868;11.892;2022-09-23T12:54:39;20.50;99.90
5200;DHT22;2619;47.868;11.892;2022-09-23T12:57:09;20.40;99.90
5200;DHT22;2619;47.868;11.892;2022-09-23T13:02:27;20.50;99.90
5200;DHT22;2619;47.868;11.892;2022-09-23T13:05:15;20.40;99.90
5200;DHT22;2619;47.868;11.892;2022-09-23T13:08:05;20.50;99.90
5200;DHT22;2619;47.868;11.892;2022-09-23T13:10:51;20.70;99.90
5200;DHT22;2619;47.868;11.892;2022-09-23T13:13:32;20.80;99.90
5200;DHT22;2619;47.868;11.892;2022-09-23T13:16:34;20.90;99.90
5200;DHT22;2619;47.868;11.892;2022-09-23T13:19:05;21.00;99.90
5200;DHT22;2619;47.868;11.892;2022-09-23T13:26:49;21.10;99.90
5200;DHT22;2619;47.868;11.892;2022-09-23T13:29:24;20.90;99.90
5200;DHT22;2619;47.868;11.892;2022-09-23T13:31:51;20.70;99.90
5200;DHT22;2619;47.868;11.892;2022-09-23T13:34:20;20.70;99.90
5200;DHT22;2619;47.868;11.892;2022-09-23T13:36:47;20.90;99.90
5200;DHT22;2619;47.868;11.892;2022-09-23T13:39:27;21.00;99.90
5200;DHT22;2619;47.868;11.892;2022-09-23T13:41:57;21.00;99.90
5200;DHT22;2619;47.868;11.892;2022-09-23T13:44:26;20.90;99.90
5200;DHT22;2619;47.868;11.892;2022-09-23T13:47:01;20.80;99.90
5200;DHT22;2619;47.868;11.892;2022-09-23T13:49:32;20.70;99.70
5200;DHT22;2619;47.868;11.892;2022-09-23T13:52:00;20.70;99.90
5200;DHT22;2619;47.868;11.892;2022-09-23T13:54:45;20.70;99.90
5200;DHT22;2619;47.868;11.892;2022-09-23T13:57:31;20.70;99.90
5200;DHT22;2619;47.868;11.892;2022-09-23T14:00:18;20.70;99.90
5200;DHT22;2619;47.868;11.892;2022-09-23T14:02:45;20.80;99.90
5200;DHT22;2619;47.868;11.892;2022-09-23T14:05:22;20.90;99.90
5200;DHT22;2619;47.868;11.892;2022-09-23T14:07:49;20.80;99.90
5200;DHT22;2619;47.868;11.892;2022-09-23T14:10:20;20.80;99.90
5200;DHT22;2619;47.868;11.892;2022-09-23T14:12:48;20.90;99.90
5200;DHT22;2619;47.868;11.892;2022-09-23T14:15:15;20.90;99.90
5200;DHT22;2619;47.868;11.892;2022-09-23T14:17:45;20.90;99.90
5200;DHT22;2619;47.868;11.892;2022-09-23T14:20:16;20.80;99.90
5200;DHT22;2619;47.868;11.892;2022-09-23T14:22:42;20.70;99.90
5200;DHT22;2619;47.868;11.892;2022-09-23T14:25:14;20.60;99.90
5200;DHT22;2619;47.868;11.892;2022-09-23T14:27:41;20.60;98.50
5200;DHT22;2619;47.868;11.892;2022-09-23T14:30:15;20.60;99.90
5200;DHT22;2619;47.868;11.892;2022-09-23T14:32:45;20.70;99.90
5200;DHT22;2619;47.868;11.892;2022-09-23T14:37:45;20.90;99.90
5200;DHT22;2619;47.868;11.892;2022-09-23T14:40:37;21.00;99.90
5200;DHT22;2619;47.868;11.892;2022-09-23T14:45:43;20.90;99.90
5200;DHT22;2619;47.868;11.892;2022-09-23T14:48:21;20.80;99.90
5200;DHT22;2619;47.868;11.892;2022-09-23T14:50:50;20.80;99.90
5200;DHT22;2619;47.868;11.892;2022-09-23T14:58:40;20.40;99.90
5200;DHT22;2619;47.868;11.892;2022-09-23T15:03:48;20.00;99.90
5200;DHT22;2619;47.868;11.892;2022-09-23T15:06:14;20.00;99.90
5200;DHT22;2619;47.868;11.892;2022-09-23T15:08:40;19.70;99.90
5200;DHT22;2619;47.868;11.892;2022-09-23T15:11:07;19.30;99.90
5200;DHT22;2619;47.868;11.892;2022-09-23T15:13:36;19.00;99.90
5200;DHT22;2619;47.868;11.892;2022-09-23T15:16:02;19.00;99.90
5200;DHT22;2619;47.868;11.892;2022-09-23T15:18:35;18.90;99.90
5200;DHT22;2619;47.868;11.892;2022-09-23T15:21:13;18.80;99.90
5200;DHT22;2619;47.868;11.892;2022-09-23T15:26:17;18.60;99.90
5200;DHT22;2619;47.868;11.892;2022-09-23T15:28:44;18.40;99.90
5200;DHT22;2619;47.868;11.892;2022-09-23T15:31:15;18.10;99.90
5200;DHT22;2619;47.868;11.892;2022-09-23T15:33:43;18.20;99.90
5200;DHT22;2619;47.868;11.892;2022-09-23T15:36:24;18.20;99.90
5200;DHT22;2619;47.868;11.892;2022-09-23T15:38:59;18.20;99.90
5200;DHT22;2619;47.868;11.892;2022-09-23T15:41:25;18.10;99.90
5200;DHT22;2619;47.868;11.892;2022-09-23T15:43:51;18.00;99.90
5200;DHT22;2619;47.868;11.892;2022-09-23T15:46:21;17.80;99.90
5200;DHT22;2619;47.868;11.892;2022-09-23T15:49:05;17.50;99.90
5200;DHT22;2619;47.868;11.892;2022-09-23T15:51:33;17.40;99.90
5200;DHT22;2619;47.868;11.892;2022-09-23T15:53:59;17.30;99.90
5200;DHT22;2619;47.868;11.892;2022-09-23T15:56:25;17.10;99.90
5200;DHT22;2619;47.868;11.892;2022-09-23T15:58:53;16.90;99.90
5200;DHT22;2619;47.868;11.892;2022-09-23T16:01:26;16.80;99.90
5200;DHT22;2619;47.868;11.892;2022-09-23T16:03:53;16.50;99.90
5200;DHT22;2619;47.868;11.892;2022-09-23T16:06:20;16.40;99.90
5200;DHT22;2619;47.868;11.892;2022-09-23T16:08:45;16.20;99.90
5200;DHT22;2619;47.868;11.892;2022-09-23T16:11:17;16.00;99.90
5200;DHT22;2619;47.868;11.892;2022-09-23T16:13:44;15.80;99.90
5200;DHT22;2619;47.868;11.892;2022-09-23T16:16:10;15.60;99.90
5200;DHT22;2619;47.868;11.892;2022-09-23T16:18:35;15.50;99.90
5200;DHT22;2619;47.868;11.892;2022-09-23T16:21:02;15.30;99.90
5200;DHT22;2619;47.868;11.892;2022-09-23T16:23:30;15.20;99.90
5200;DHT22;2619;47.868;11.892;2022-09-23T16:26:20;15.00;99.90
5200;DHT22;2619;47.868;11.892;2022-09-23T16:28:47;14.90;99.90
5200;DHT22;2619;47.868;11.892;2022-09-23T16:31:14;14.80;99.90
5200;DHT22;2619;47.868;11.892;2022-09-23T16:33:44;14.60;99.90
5200;DHT22;2619;47.868;11.892;2022-09-23T16:36:19;14.40;99.90
5200;DHT22;2619;47.868;11.892;2022-09-23T16:38:46;14.30;99.90
5200;DHT22;2619;47.868;11.892;2022-09-23T16:41:12;14.10;99.90
5200;DHT22;2619;47.868;11.892;2022-09-23T16:43:38;13.90;99.90
5200;DHT22;2619;47.868;11.892;2022-09-23T16:46:08;13.70;99.90
5200;DHT22;2619;47.868;11.892;2022-09-23T16:48:34;13.60;99.90
5200;DHT22;2619;47.868;11.892;2022-09-23T16:51:05;13.50;99.90
5200;DHT22;2619;47.868;11.892;2022-09-23T16:53:31;13.30;99.90
5200;DHT22;2619;47.868;11.892;2022-09-23T16:55:57;13.30;99.90
5200;DHT22;2619;47.868;11.892;2022-09-23T16:58:23;13.20;99.90
5200;DHT22;2619;47.868;11.892;2022-09-23T17:00:55;13.00;99.90
5200;DHT22;2619;47.868;11.892;2022-09-23T17:03:39;12.90;99.90
5200;DHT22;2619;47.868;11.892;2022-09-23T17:06:14;12.80;99.90
5200;DHT22;2619;47.868;11.892;2022-09-23T17:08:40;12.60;99.90
5200;DHT22;2619;47.868;11.892;2022-09-23T17:11:07;12.50;99.90
5200;DHT22;2619;47.868;11.892;2022-09-23T17:13:33;12.30;99.90
5200;DHT22;2619;47.868;11.892;2022-09-23T17:15:59;12.30;99.90
5200;DHT22;2619;47.868;11.892;2022-09-23T17:18:25;12.20;99.90
5200;DHT22;2619;47.868;11.892;2022-09-23T17:21:05;12.10;99.90
5200;DHT22;2619;47.868;11.892;2022-09-23T17:23:32;12.00;99.90
5200;DHT22;2619;47.868;11.892;2022-09-23T17:26:00;11.80;99.90
5200;DHT22;2619;47.868;11.892;2022-09-23T17:28:26;11.80;99.90
5200;DHT22;2619;47.868;11.892;2022-09-23T17:30:57;11.70;99.90
5200;DHT22;2619;47.868;11.892;2022-09-23T17:33:26;11.60;99.90
5200;DHT22;2619;47.868;11.892;2022-09-23T17:35:52;11.60;99.90
5200;DHT22;2619;47.868;11.892;2022-09-23T17:38:20;11.50;99.90
5200;DHT22;2619;47.868;11.892;2022-09-23T17:40:53;11.40;99.90
5200;DHT22;2619;47.868;11.892;2022-09-23T17:43:20;11.30;99.90
5200;DHT22;2619;47.868;11.892;2022-09-23T17:45:53;11.20;99.90
5200;DHT22;2619;47.868;11.892;2022-09-23T17:48:21;11.10;99.90
5200;DHT22;2619;47.868;11.892;2022-09-23T17:50:54;11.10;99.90
5200;DHT22;2619;47.868;11.892;2022-09-23T17:53:21;11.00;99.90
5200;DHT22;2619;47.868;11.892;2022-09-23T17:55:57;11.10;99.90
5200;DHT22;2619;47.868;11.892;2022-09-23T17:58:28;10.90;99.90
5200;DHT22;2619;47.868;11.892;2022-09-23T18:00:54;10.70;99.90
5200;DHT22;2619;47.868;11.892;2022-09-23T18:03:20;10.60;99.90
5200;DHT22;2619;47.868;11.892;2022-09-23T18:05:46;10.50;99.90
5200;DHT22;2619;47.868;11.892;2022-09-23T18:08:12;10.40;99.90
5200;DHT22;2619;47.868;11.892;2022-09-23T18:10:37;10.30;99.90
5200;DHT22;2619;47.868;11.892;2022-09-23T18:13:03;10.30;99.90
5200;DHT22;2619;47.868;11.892;2022-09-23T18:15:29;10.30;99.90
5200;DHT22;2619;47.868;11.892;2022-09-23T18:17:55;10.30;99.90
5200;DHT22;2619;47.868;11.892;2022-09-23T18:20:21;10.30;99.90
5200;DHT22;2619;47.868;11.892;2022-09-23T18:22:46;10.30;99.90
5200;DHT22;2619;47.868;11.892;2022-09-23T18:25:12;10.20;99.90
5200;DHT22;2619;47.868;11.892;2022-09-23T18:27:37;10.20;99.90
5200;DHT22;2619;47.868;11.892;2022-09-23T18:30:03;10.10;99.90
5200;DHT22;2619;47.868;11.892;2022-09-23T18:32:29;10.10;99.90
5200;DHT22;2619;47.868;11.892;2022-09-23T18:34:55;10.10;99.90
5200;DHT22;2619;47.868;11.892;2022-09-23T18:37:21;10.20;99.90
5200;DHT22;2619;47.868;11.892;2022-09-23T18:39:46;10.10;99.90
5200;DHT22;2619;47.868;11.892;2022-09-23T18:42:13;9.90;99.90
5200;DHT22;2619;47.868;11.892;2022-09-23T18:44:38;9.80;99.90